sensor_id;sensor_type;location;lat;lon;timestamp;pressure;altitude;pressure_sealevel;temperature;humidity
55077;BME280;40971;44.702;11.030;2023-07-22T00:04:51;100940.50;;;22.73;86.87
55077;BME280;40971;44.702;11.030;2023-07-22T00:14:54;100923.47;;;22.79;87.71
55077;BME280;40971;44.702;11.030;2023-07-22T00:24:57;100914.06;;;22.53;87.85
55077;BME280;40971;44.702;11.030;2023-07-22T00:35:04;100912.34;;;22.35;88.72
55077;BME280;40971;44.702;11.030;2023-07-22T00:45:08;100907.19;;;22.45;87.08
55077;BME280;40971;44.702;11.030;2023-07-22T00:55:11;100910.72;;;22.34;89.68
55077;BME280;40971;44.702;11.030;2023-07-22T01:05:14;100909.63;;;22.70;87.33
55077;BME280;40971;44.702;11.030;2023-07-22T01:15:17;100912.22;;;22.42;88.83
55077;BME280;40971;44.702;11.030;2023-07-22T01:25:20;100894.34;;;21.96;88.88
55077;BME280;40971;44.702;11.030;2023-07-22T01:35:25;100916.91;;;22.12;87.61
55077;BME280;40971;44.702;11.030;2023-07-22T01:45:29;100922.69;;;22.67;86.28
55077;BME280;40971;44.702;11.030;2023-07-22T01:55:32;100938.69;;;22.38;83.90
55077;BME280;40971;44.702;11.030;2023-07-22T02:05:35;100965.84;;;21.66;84.61
55077;BME280;40971;44.702;11.030;2023-07-22T02:15:38;100973.94;;;21.47;85.88
55077;BME280;40971;44.702;11.030;2023-07-22T02:25:41;100983.03;;;21.46;84.92
55077;BME280;40971;44.702;11.030;2023-07-22T02:35:44;100998.31;;;21.58;83.89
55077;BME280;40971;44.702;11.030;2023-07-22T02:45:47;101001.63;;;21.05;85.87
55077;BME280;40971;44.702;11.030;2023-07-22T02:55:50;100994.59;;;20.92;86.04
55077;BME280;40971;44.702;11.030;2023-07-22T03:05:52;101026.09;;;21.09;85.88
55077;BME280;40971;44.702;11.030;2023-07-22T03:15:56;101015.06;;;21.35;84.94
55077;BME280;40971;44.702;11.030;2023-07-22T03:25:59;101027.31;;;21.42;85.51
55077;BME280;40971;44.702;11.030;2023-07-22T03:36:02;101037.38;;;21.11;86.20
55077;BME280;40971;44.702;11.030;2023-07-22T03:46:06;101037.13;;;20.94;87.34
55077;BME280;40971;44.702;11.030;2023-07-22T03:56:09;101036.13;;;20.77;88.89
55077;BME280;40971;44.702;11.030;2023-07-22T04:06:12;101049.19;;;20.85;89.65
55077;BME280;40971;44.702;11.030;2023-07-22T04:16:13;101045.78;;;20.96;88.71
55077;BME280;40971;44.702;11.030;2023-07-22T04:26:14;101047.31;;;21.04;88.47
55077;BME280;40971;44.702;11.030;2023-07-22T04:36:17;101064.06;;;21.17;89.04
55077;BME280;40971;44.702;11.030;2023-07-22T04:46:20;101067.88;;;21.39;88.96
55077;BME280;40971;44.702;11.030;2023-07-22T04:56:22;101079.72;;;21.80;87.54
55077;BME280;40971;44.702;11.030;2023-07-22T05:06:25;101097.25;;;21.94;86.83
55077;BME280;40971;44.702;11.030;2023-07-22T05:16:28;101110.47;;;22.19;84.29
55077;BME280;40971;44.702;11.030;2023-07-22T05:26:31;101104.03;;;22.08;84.32
55077;BME280;40971;44.702;11.030;2023-07-22T05:36:34;101109.06;;;22.16;84.03
55077;BME280;40971;44.702;11.030;2023-07-22T05:46:37;101119.34;;;22.42;81.26
55077;BME280;40971;44.702;11.030;2023-07-22T05:56:41;101118.53;;;22.53;82.00
55077;BME280;40971;44.702;11.030;2023-07-22T06:06:44;101137.72;;;22.92;80.32
55077;BME280;40971;44.702;11.030;2023-07-22T06:16:46;101141.19;;;23.04;80.03
55077;BME280;40971;44.702;11.030;2023-07-22T06:26:48;101160.16;;;23.49;77.13
55077;BME280;40971;44.702;11.030;2023-07-22T06:36:50;101180.41;;;24.08;74.37
55077;BME280;40971;44.702;11.030;2023-07-22T06:46:53;101173.44;;;24.23;75.68
55077;BME280;40971;44.702;11.030;2023-07-22T06:56:56;101175.47;;;24.61;75.23
55077;BME280;40971;44.702;11.030;2023-07-22T07:06:57;101158.38;;;25.44;71.73
55077;BME280;40971;44.702;11.030;2023-07-22T07:16:58;101156.97;;;26.07;70.50
55077;BME280;40971;44.702;11.030;2023-07-22T07:27:00;101168.38;;;26.40;68.90
55077;BME280;40971;44.702;11.030;2023-07-22T07:37:05;101186.97;;;27.47;65.72
55077;BME280;40971;44.702;11.030;2023-07-22T07:47:07;101189.78;;;27.21;65.36
55077;BME280;40971;44.702;11.030;2023-07-22T07:57:08;101195.16;;;27.21;67.52
55077;BME280;40971;44.702;11.030;2023-07-22T08:07:10;101193.47;;;28.49;62.19
55077;BME280;40971;44.702;11.030;2023-07-22T08:17:13;101179.41;;;28.87;63.71
55077;BME280;40971;44.702;11.030;2023-07-22T08:27:17;101182.34;;;28.20;62.46
55077;BME280;40971;44.702;11.030;2023-07-22T08:37:19;101195.41;;;28.68;60.83
55077;BME280;40971;44.702;11.030;2023-07-22T08:47:21;101186.25;;;29.64;56.96
55077;BME280;40971;44.702;11.030;2023-07-22T08:57:24;101186.06;;;30.04;56.79
55077;BME280;40971;44.702;11.030;2023-07-22T09:07:29;101167.06;;;30.09;55.30
55077;BME280;40971;44.702;11.030;2023-07-22T09:17:31;101175.63;;;29.77;55.98
55077;BME280;40971;44.702;11.030;2023-07-22T09:27:33;101179.66;;;30.29;54.43
55077;BME280;40971;44.702;11.030;2023-07-22T09:37:38;101177.25;;;31.42;52.08
55077;BME280;40971;44.702;11.030;2023-07-22T09:47:40;101166.13;;;30.63;52.88
55077;BME280;40971;44.702;11.030;2023-07-22T09:57:45;101149.31;;;31.13;53.27
55077;BME280;40971;44.702;11.030;2023-07-22T10:07:55;101141.72;;;30.57;53.52
55077;BME280;40971;44.702;11.030;2023-07-22T10:17:57;101129.09;;;31.48;51.59
55077;BME280;40971;44.702;11.030;2023-07-22T10:28:00;101107.13;;;30.97;51.77
55077;BME280;40971;44.702;11.030;2023-07-22T10:38:12;101103.41;;;31.35;50.98
55077;BME280;40971;44.702;11.030;2023-07-22T10:48:14;101109.59;;;32.02;49.56
55077;BME280;40971;44.702;11.030;2023-07-22T10:58:19;101108.44;;;32.54;48.55
55077;BME280;40971;44.702;11.030;2023-07-22T11:08:40;101109.09;;;32.92;48.29
55077;BME280;40971;44.702;11.030;2023-07-22T11:18:42;101098.59;;;32.71;48.13
55077;BME280;40971;44.702;11.030;2023-07-22T11:28:46;101090.94;;;33.01;46.71
55077;BME280;40971;44.702;11.030;2023-07-22T11:38:47;101075.28;;;32.33;50.03
55077;BME280;40971;44.702;11.030;2023-07-22T11:48:50;101048.56;;;33.22;46.42
55077;BME280;40971;44.702;11.030;2023-07-22T11:58:54;101054.09;;;33.03;45.70
55077;BME280;40971;44.702;11.030;2023-07-22T12:08:56;101027.22;;;34.96;43.79
55077;BME280;40971;44.702;11.030;2023-07-22T12:19:01;101055.84;;;36.36;38.95
55077;BME280;40971;44.702;11.030;2023-07-22T12:29:03;101131.47;;;25.87;60.73
55077;BME280;40971;44.702;11.030;2023-07-22T12:39:04;101105.38;;;24.51;65.00
55077;BME280;40971;44.702;11.030;2023-07-22T12:49:07;101059.38;;;23.41;67.78
55077;BME280;40971;44.702;11.030;2023-07-22T12:59:08;101067.75;;;22.35;77.38
55077;BME280;40971;44.702;11.030;2023-07-22T13:09:10;101082.56;;;22.73;80.35
55077;BME280;40971;44.702;11.030;2023-07-22T13:19:11;101094.59;;;24.01;81.84
55077;BME280;40971;44.702;11.030;2023-07-22T13:29:12;101133.34;;;27.19;70.74
55077;BME280;40971;44.702;11.030;2023-07-22T13:39:15;101157.16;;;27.94;66.21
55077;BME280;40971;44.702;11.030;2023-07-22T13:49:16;101133.97;;;28.44;62.27
55077;BME280;40971;44.702;11.030;2023-07-22T13:59:19;101132.16;;;29.43;58.49
55077;BME280;40971;44.702;11.030;2023-07-22T14:09:20;101137.38;;;30.23;56.37
55077;BME280;40971;44.702;11.030;2023-07-22T14:19:21;101156.88;;;30.64;52.39
55077;BME280;40971;44.702;11.030;2023-07-22T14:29:23;101161.16;;;30.70;51.19
55077;BME280;40971;44.702;11.030;2023-07-22T14:39:26;101139.72;;;31.44;52.80
55077;BME280;40971;44.702;11.030;2023-07-22T14:49:27;101142.34;;;30.78;56.38
55077;BME280;40971;44.702;11.030;2023-07-22T14:59:29;101145.09;;;30.06;57.60
55077;BME280;40971;44.702;11.030;2023-07-22T15:09:30;101138.63;;;30.40;57.12
55077;BME280;40971;44.702;11.030;2023-07-22T15:19:31;101136.28;;;29.90;60.91
55077;BME280;40971;44.702;11.030;2023-07-22T15:29:32;101140.53;;;30.40;56.54
55077;BME280;40971;44.702;11.030;2023-07-22T15:39:33;101121.97;;;31.28;54.56
55077;BME280;40971;44.702;11.030;2023-07-22T15:49:36;101123.84;;;30.56;54.03
55077;BME280;40971;44.702;11.030;2023-07-22T15:59:38;101124.53;;;30.67;52.45
55077;BME280;40971;44.702;11.030;2023-07-22T16:09:39;101102.13;;;30.56;53.74
55077;BME280;40971;44.702;11.030;2023-07-22T16:19:41;101109.22;;;30.52;54.67
55077;BME280;40971;44.702;11.030;2023-07-22T16:29:44;101096.59;;;30.67;53.10
55077;BME280;40971;44.702;11.030;2023-07-22T16:39:45;101093.38;;;30.31;51.65
55077;BME280;40971;44.702;11.030;2023-07-22T16:49:46;101093.19;;;29.83;52.05
55077;BME280;40971;44.702;11.030;2023-07-22T16:59:47;101089.06;;;29.47;54.64
55077;BME280;40971;44.702;11.030;2023-07-22T17:09:48;101094.97;;;30.03;51.39
55077;BME280;40971;44.702;11.030;2023-07-22T17:19:50;101098.66;;;29.14;53.39
55077;BME280;40971;44.702;11.030;2023-07-22T17:29:51;101090.06;;;28.92;54.54
55077;BME280;40971;44.702;11.030;2023-07-22T17:39:53;101101.22;;;28.65;56.76
55077;BME280;40971;44.702;11.030;2023-07-22T17:49:55;101084.19;;;28.50;57.82
55077;BME280;40971;44.702;11.030;2023-07-22T17:59:58;101092.56;;;28.18;63.15
55077;BME280;40971;44.702;11.030;2023-07-22T18:09:59;101092.34;;;27.27;61.64
55077;BME280;40971;44.702;11.030;2023-07-22T18:20:00;101093.19;;;26.86;66.10
55077;BME280;40971;44.702;11.030;2023-07-22T18:30:02;101101.81;;;26.14;71.19
55077;BME280;40971;44.702;11.030;2023-07-22T18:40:05;101082.84;;;25.77;72.94
55077;BME280;40971;44.702;11.030;2023-07-22T18:50:07;101115.00;;;25.19;72.70
55077;BME280;40971;44.702;11.030;2023-07-22T19:00:10;101129.34;;;24.86;75.22
55077;BME280;40971;44.702;11.030;2023-07-22T19:10:13;101141.97;;;23.79;81.05
55077;BME280;40971;44.702;11.030;2023-07-22T19:20:17;101153.13;;;23.59;81.31
55077;BME280;40971;44.702;11.030;2023-07-22T19:30:21;101164.03;;;23.18;85.52
55077;BME280;40971;44.702;11.030;2023-07-22T19:40:22;101180.69;;;23.32;83.39
55077;BME280;40971;44.702;11.030;2023-07-22T19:50:24;101199.84;;;23.24;83.39
55077;BME280;40971;44.702;11.030;2023-07-22T20:00:28;101203.47;;;23.17;82.64
55077;BME280;40971;44.702;11.030;2023-07-22T20:10:29;101215.72;;;23.02;82.09
55077;BME280;40971;44.702;11.030;2023-07-22T20:20:31;101209.03;;;22.70;83.54
55077;BME280;40971;44.702;11.030;2023-07-22T20:30:36;101224.09;;;22.82;82.21
55077;BME280;40971;44.702;11.030;2023-07-22T20:40:39;101224.06;;;22.71;83.55
55077;BME280;40971;44.702;11.030;2023-07-22T20:50:41;101223.50;;;22.80;82.54
55077;BME280;40971;44.702;11.030;2023-07-22T21:00:44;101232.00;;;22.47;83.76
55077;BME280;40971;44.702;11.030;2023-07-22T21:10:49;101239.75;;;22.55;83.04
55077;BME280;40971;44.702;11.030;2023-07-22T21:20:52;101255.31;;;22.17;84.03
55077;BME280;40971;44.702;11.030;2023-07-22T21:30:54;101250.25;;;21.73;84.71
55077;BME280;40971;44.702;11.030;2023-07-22T21:40:57;101252.69;;;21.38;86.09
55077;BME280;40971;44.702;11.030;2023-07-22T21:51:00;101256.50;;;21.48;87.15
55077;BME280;40971;44.702;11.030;2023-07-22T22:01:04;101275.09;;;21.19;90.11
55077;BME280;40971;44.702;11.030;2023-07-22T22:11:07;101280.59;;;21.24;88.83
55077;BME280;40971;44.702;11.030;2023-07-22T22:21:09;101272.31;;;21.07;90.33
55077;BME280;40971;44.702;11.030;2023-07-22T22:31:12;101265.28;;;21.06;91.13
55077;BME280;40971;44.702;11.030;2023-07-22T22:41:13;101280.34;;;21.01;90.49
55077;BME280;40971;44.702;11.030;2023-07-22T22:51:15;101271.66;;;20.80;90.09
55077;BME280;40971;44.702;11.030;2023-07-22T23:01:18;101266.56;;;20.72;89.30
55077;BME280;40971;44.702;11.030;2023-07-22T23:11:20;101262.72;;;20.62;89.68
55077;BME280;40971;44.702;11.030;2023-07-22T23:21:25;101262.44;;;20.45;90.15
55077;BME280;40971;44.702;11.030;2023-07-22T23:31:27;101262.03;;;20.42;90.98
55077;BME280;40971;44.702;11.030;2023-07-22T23:41:29;101249.88;;;20.01;92.52
55077;BME280;40971;44.702;11.030;2023-07-22T23:51:34;101265.38;;;19.73;96.50
